Time;durP1;ratioP1;P1;durP2;ratioP2;P2;SDS_P1;SDS_P2;PMS_P1;PMS_P2;Temp;Humidity;BMP_temperature;BMP_pressure;BME280_temperature;BME280_humidity;BME280_pressure;Samples;Min_cycle;Max_cycle;Signal;HPM_P1;HPM_P2
2022/10/08 00:04:03;;;;;;;10.90;3.47;;;;;;;9.94;65.11;100451.59;10061963;29;20418;-80
2022/10/08 00:09:07;;;;;;;11.70;3.45;;;;;;;9.83;66.00;100457.75;10068645;29;20207;-79
2022/10/08 00:14:11;;;;;;;10.32;3.05;;;;;;;9.88;66.31;100441.34;10073932;29;20052;-80
2022/10/08 00:19:15;;;;;;;15.00;3.33;;;;;;;9.86;66.29;100441.47;10083840;29;20461;-80
2022/10/08 00:24:20;;;;;;;12.20;3.60;;;;;;;9.81;66.49;100446.28;10078818;29;20053;-78
2022/10/08 00:29:24;;;;;;;12.35;3.28;;;;;;;9.70;66.49;100446.25;10074081;29;20097;-78
2022/10/08 00:34:27;;;;;;;13.48;3.55;;;;;;;9.70;66.38;100439.06;10067384;29;20052;-79
2022/10/08 00:39:29;;;;;;;;;;;;;;;9.59;66.67;100444.38;10093337;29;20058;-80
2022/10/08 00:44:53;;;;;;;11.07;3.60;;;;;;;9.57;66.76;100429.38;10099102;29;19938;-80
2022/10/08 00:49:59;;;;;;;17.77;4.00;;;;;;;9.59;67.33;100439.03;10091264;29;21232;-79
2022/10/08 00:55:05;;;;;;;13.75;3.85;;;;;;;9.55;67.36;100432.19;10087023;29;20047;-80
2022/10/08 01:00:13;;;;;;;8.10;3.45;;;;;;;9.52;67.83;100432.44;10085693;29;20586;-79
2022/10/08 01:05:19;;;;;;;15.48;3.90;;;;;;;9.60;68.72;100426.47;10078055;29;20057;-79
2022/10/08 01:10:32;;;;;;;15.40;3.65;;;;;;;9.84;68.70;100423.72;10075158;29;20064;-80
2022/10/08 01:15:42;;;;;;;14.65;3.83;;;;;;;10.00;68.59;100416.22;10068063;29;20056;-80
2022/10/08 01:20:52;;;;;;;15.75;3.83;;;;;;;10.21;68.00;100412.84;10069200;29;20151;-79
2022/10/08 01:26:02;;;;;;;11.07;3.50;;;;;;;10.28;67.60;100412.22;10062045;29;20092;-79
2022/10/08 01:31:12;;;;;;;11.32;3.00;;;;;;;10.15;68.01;100414.19;10068177;29;20175;-80
2022/10/08 01:36:17;;;;;;;13.95;3.08;;;;;;;9.98;68.60;100422.69;10073021;29;20052;-80
2022/10/08 01:41:24;;;;;;;11.38;3.15;;;;;;;10.07;68.31;100428.22;10089041;29;20057;-80
2022/10/08 01:46:30;;;;;;;11.43;3.15;;;;;;;10.22;67.84;100420.78;10080426;29;20059;-79
2022/10/08 01:51:37;;;;;;;12.25;3.88;;;;;;;9.87;69.15;100418.16;10077631;29;20421;-79
2022/10/08 01:56:43;;;;;;;11.25;3.33;;;;;;;10.15;68.41;100408.81;10090330;29;20051;-80
2022/10/08 02:01:56;;;;;;;9.93;3.95;;;;;;;10.19;68.03;100417.47;10096073;29;20052;-79
2022/10/08 02:07:01;;;;;;;12.32;3.53;;;;;;;10.12;68.47;100409.03;10068527;29;21072;-80
2022/10/08 02:12:05;;;;;;;12.18;3.63;;;;;;;10.17;68.16;100398.78;10066073;29;20116;-80
2022/10/08 02:17:21;;;;;;;11.75;4.65;;;;;;;10.04;68.48;100416.84;10068351;29;20165;-80
2022/10/08 02:22:29;;;;;;;9.85;3.20;;;;;;;10.20;67.90;100414.66;10089536;29;20088;-80
2022/10/08 02:27:45;;;;;;;12.88;3.70;;;;;;;10.00;68.91;100410.00;10085806;29;20089;-79
2022/10/08 02:32:54;;;;;;;14.35;3.40;;;;;;;10.07;68.65;100406.75;10082686;29;20268;-79
2022/10/08 02:38:01;;;;;;;13.95;2.95;;;;;;;9.92;69.10;100407.91;10088228;29;20425;-80
2022/10/08 02:43:09;;;;;;;12.10;3.30;;;;;;;9.85;69.27;100407.53;10099068;29;20415;-80
2022/10/08 02:48:21;;;;;;;16.67;4.28;;;;;;;9.80;69.95;100398.13;10076143;29;20197;-80
2022/10/08 02:53:25;;;;;;;14.40;3.77;;;;;;;9.81;71.42;100400.69;10076951;29;20059;-79
2022/10/08 02:58:28;;;;;;;12.60;3.15;;;;;;;9.82;71.97;100404.22;10069714;29;20053;-81
2022/10/08 03:03:36;;;;;;;13.70;3.78;;;;;;;9.96;71.85;100409.41;10072311;29;20061;-80
2022/10/08 03:08:45;;;;;;;13.52;3.95;;;;;;;10.11;71.71;100413.56;10093233;29;20084;-80
2022/10/08 03:13:50;;;;;;;13.52;3.90;;;;;;;10.21;71.66;100416.38;10081464;29;20082;-80
2022/10/08 03:18:57;;;;;;;19.17;5.07;;;;;;;10.10;71.82;100413.69;10088139;29;21152;-80
2022/10/08 03:24:00;;;;;;;14.00;4.15;;;;;;;10.14;71.74;100413.31;10088953;29;20052;-80
2022/10/08 03:29:03;;;;;;;;;;;;;;;9.81;72.56;100416.78;10096495;29;20059;-80
2022/10/08 03:34:07;;;;;;;13.25;4.85;;;;;;;9.77;72.69;100404.59;10063222;29;19928;-80
2022/10/08 03:39:11;;;;;;;17.40;3.50;;;;;;;10.22;71.68;100407.34;10095446;29;20064;-80
2022/10/08 03:44:13;;;;;;;14.10;4.60;;;;;;;10.13;72.44;100408.09;10086777;29;20513;-80
2022/10/08 03:49:17;;;;;;;;;;;;;;;10.05;72.09;100411.38;10086473;29;20044;-79
2022/10/08 03:54:20;;;;;;;10.60;3.83;;;;;;;10.35;71.90;100408.09;10081535;29;21052;-80
2022/10/08 03:59:23;;;;;;;11.77;3.78;;;;;;;10.47;71.01;100410.75;10073175;29;20063;-81
2022/10/08 04:04:27;;;;;;;;;;;;;;;10.51;70.81;100415.78;10072094;29;20093;-80
2022/10/08 04:09:30;;;;;;;12.48;3.55;;;;;;;10.63;70.52;100413.91;10064268;29;19927;-80
2022/10/08 04:14:32;;;;;;;;;;;;;;;10.68;70.41;100417.09;10061519;29;20475;-79
2022/10/08 04:19:37;;;;;;;15.00;3.88;;;;;;;10.69;69.86;100421.47;10075912;29;19931;-81
2022/10/08 04:24:39;;;;;;;11.85;3.70;;;;;;;10.55;70.50;100421.75;10090553;29;20049;-80
2022/10/08 04:29:42;;;;;;;14.80;4.13;;;;;;;10.42;71.42;100426.38;10086089;29;21181;-80
2022/10/08 04:34:46;;;;;;;12.10;4.47;;;;;;;9.80;73.48;100431.16;10079589;29;20057;-79
2022/10/08 04:39:49;;;;;;;20.23;4.25;;;;;;;10.26;72.84;100427.63;10076588;29;20738;-79
2022/10/08 04:44:52;;;;;;;8.60;3.15;;;;;;;10.13;73.67;100433.09;10083367;29;20075;-80
2022/10/08 04:49:57;;;;;;;19.08;5.00;;;;;;;10.10;74.68;100435.16;10080197;29;20083;-80
2022/10/08 04:54:59;;;;;;;15.52;5.43;;;;;;;9.88;75.72;100441.34;10069852;29;20056;-79
2022/10/08 05:00:03;;;;;;;14.02;4.93;;;;;;;9.70;77.43;100446.25;10070749;29;20116;-80
2022/10/08 05:05:22;;;;;;;16.02;5.03;;;;;;;9.76;77.71;100439.56;10080944;29;20053;-80
2022/10/08 05:10:25;;;;;;;12.23;5.03;;;;;;;10.00;77.76;100450.28;10081907;29;21709;-80
2022/10/08 05:15:28;;;;;;;17.83;7.88;;;;;;;9.96;78.64;100446.97;10092596;29;20049;-80
2022/10/08 05:20:35;;;;;;;22.90;8.52;;;;;;;9.85;79.98;100461.19;10091032;29;20167;-79
2022/10/08 05:25:38;;;;;;;24.17;8.70;;;;;;;9.94;80.20;100433.66;10089794;29;20536;-77
2022/10/08 05:30:41;;;;;;;;;;;;;;;9.88;81.46;100444.03;10083395;29;20473;-78
2022/10/08 05:35:45;;;;;;;27.45;8.45;;;;;;;9.57;81.97;100446.34;10083381;29;20290;-77
2022/10/08 05:40:48;;;;;;;22.10;9.85;;;;;;;9.68;82.35;100449.06;10071796;29;20107;-78
2022/10/08 05:45:50;;;;;;;;;;;;;;;9.73;82.07;100443.34;10082543;29;20559;-77
2022/10/08 05:50:55;;;;;;;16.02;9.65;;;;;;;9.86;81.88;100462.91;10079790;29;19927;-77
2022/10/08 05:56:01;;;;;;;17.98;9.60;;;;;;;9.53;83.71;100469.00;10082947;29;20063;-78
2022/10/08 06:01:06;;;;;;;18.77;9.38;;;;;;;9.70;82.98;100481.13;10063313;29;20132;-78
2022/10/08 06:06:11;;;;;;;21.00;9.02;;;;;;;9.90;82.25;100485.00;10087792;29;20055;-78
2022/10/08 06:11:14;;;;;;;20.60;10.00;;;;;;;9.75;83.68;100495.03;10088625;29;20053;-78
2022/10/08 06:16:17;;;;;;;;;;;;;;;9.57;84.91;100510.72;10086960;29;20061;-78
2022/10/08 06:21:24;;;;;;;21.30;12.40;;;;;;;9.94;84.37;100524.91;10077886;29;20405;-79
2022/10/08 06:26:29;;;;;;;23.88;12.65;;;;;;;9.86;85.32;100532.69;10083543;29;20052;-77
2022/10/08 06:31:37;;;;;;;21.45;11.68;;;;;;;10.00;84.77;100549.56;10096157;29;20055;-77
2022/10/08 06:36:41;;;;;;;20.33;12.88;;;;;;;9.70;86.59;100559.75;10086002;29;20074;-79
2022/10/08 06:41:44;;;;;;;23.70;14.05;;;;;;;10.21;84.77;100564.03;10071841;29;20060;-79
2022/10/08 06:46:47;;;;;;;22.95;15.45;;;;;;;10.32;84.64;100566.75;10085452;29;20499;-78
2022/10/08 06:51:52;;;;;;;29.17;17.83;;;;;;;10.05;85.81;100574.22;10082430;29;20149;-79
2022/10/08 06:56:54;;;;;;;30.83;17.52;;;;;;;10.37;85.07;100575.31;10075643;29;20419;-79
2022/10/08 07:01:57;;;;;;;;;;;;;;;10.10;86.54;100569.38;10087618;29;20048;-79
2022/10/08 07:07:01;;;;;;;27.52;18.73;;;;;;;10.29;86.01;100583.09;10084838;29;19935;-79
2022/10/08 07:12:04;;;;;;;27.35;17.77;;;;;;;10.19;86.57;100598.19;10105436;29;20056;-79
2022/10/08 07:17:06;;;;;;;;;;;;;;;9.87;87.30;100608.66;10090944;29;20045;-78
2022/10/08 07:22:11;;;;;;;23.08;14.20;;;;;;;10.27;86.36;100613.72;10093831;29;20397;-79
2022/10/08 07:27:14;;;;;;;30.27;18.50;;;;;;;10.24;86.73;100616.66;10083421;29;21327;-79
2022/10/08 07:32:16;;;;;;;30.85;20.42;;;;;;;10.39;86.38;100627.06;10080852;29;20053;-79
2022/10/08 07:37:20;;;;;;;;;;;;;;;10.34;85.75;100648.06;10104119;29;20060;-78
2022/10/08 07:42:23;;;;;;;26.23;16.35;;;;;;;10.09;87.28;100634.75;10073419;29;19954;-78
2022/10/08 07:47:26;;;;;;;;;;;;;;;10.31;85.69;100656.34;10077245;29;20426;-79
2022/10/08 07:52:31;;;;;;;27.10;16.40;;;;;;;10.96;83.04;100646.84;10072786;29;20389;-79
2022/10/08 07:57:33;;;;;;;22.77;12.77;;;;;;;10.92;82.36;100655.28;10088999;29;20417;-78
2022/10/08 08:02:36;;;;;;;;;;;;;;;10.92;81.90;100657.97;10083657;29;20091;-80
2022/10/08 08:07:40;;;;;;;16.52;11.38;;;;;;;10.98;80.92;100666.41;10077425;29;19935;-80
2022/10/08 08:12:43;;;;;;;18.10;10.98;;;;;;;11.13;80.22;100671.56;10085851;29;20103;-79
2022/10/08 08:17:46;;;;;;;22.90;11.52;;;;;;;11.08;80.78;100677.28;10077206;29;20060;-79
2022/10/08 08:22:50;;;;;;;;;;;;;;;10.90;80.84;100678.72;10088845;29;20067;-79
2022/10/08 08:27:53;;;;;;;17.00;10.50;;;;;;;10.79;81.14;100693.84;10078604;29;21072;-81
2022/10/08 08:32:56;;;;;;;25.20;12.60;;;;;;;11.06;80.15;100698.91;10095005;29;20055;-77
2022/10/08 08:38:00;;;;;;;18.55;11.27;;;;;;;11.14;79.93;100716.31;10094094;29;20136;-78
2022/10/08 08:43:03;;;;;;;25.08;13.07;;;;;;;10.99;80.86;100710.25;10081724;29;20053;-77
2022/10/08 08:48:07;;;;;;;;;;;;;;;11.69;78.15;100711.94;10093064;29;20052;-79
2022/10/08 08:53:11;;;;;;;20.35;12.43;;;;;;;12.00;76.89;100722.88;10090338;29;20545;-78
2022/10/08 08:58:32;;;;;;;19.10;11.85;;;;;;;11.84;76.89;100729.50;10083218;29;20482;-79
2022/10/08 09:03:40;;;;;;;18.92;10.32;;;;;;;12.41;75.44;100721.34;10088909;29;20063;-78
2022/10/08 09:08:48;;;;;;;15.10;8.40;;;;;;;12.19;73.93;100730.31;10082568;29;20063;-79
2022/10/08 09:13:56;;;;;;;16.30;7.93;;;;;;;12.62;72.63;100727.63;10082916;29;20204;-78
2022/10/08 09:18:59;;;;;;;11.32;6.43;;;;;;;13.47;68.02;100727.50;10081266;29;20059;-79
2022/10/08 09:24:03;;;;;;;15.35;7.05;;;;;;;13.06;69.68;100725.69;10091369;29;20057;-78
2022/10/08 09:29:06;;;;;;;12.88;6.15;;;;;;;13.23;67.88;100735.00;10085532;29;20072;-78
2022/10/08 09:34:18;;;;;;;12.35;5.82;;;;;;;13.17;68.89;100743.63;10087488;29;20149;-79
2022/10/08 09:39:25;;;;;;;13.93;5.22;;;;;;;14.02;65.44;100748.75;10094181;29;20053;-79
2022/10/08 09:44:39;;;;;;;10.90;5.05;;;;;;;13.57;66.42;100754.53;10095729;29;20053;-79
2022/10/08 09:49:42;;;;;;;12.27;4.55;;;;;;;12.90;67.97;100752.25;10071573;29;20135;-79
2022/10/08 09:54:50;;;;;;;8.95;4.43;;;;;;;13.80;66.48;100748.94;10079640;29;20049;-78
2022/10/08 09:59:55;;;;;;;9.40;3.92;;;;;;;14.20;62.93;100756.16;10059214;29;21217;-78
2022/10/08 10:04:59;;;;;;;9.80;3.47;;;;;;;13.94;64.18;100767.47;10089247;29;20132;-79
2022/10/08 10:10:09;;;;;;;5.07;2.95;;;;;;;12.76;66.63;100764.19;10089488;29;20084;-77
2022/10/08 10:15:16;;;;;;;9.35;4.13;;;;;;;12.56;68.41;100763.16;10085177;29;20055;-78
2022/10/08 10:20:22;;;;;;;9.98;4.80;;;;;;;12.44;68.98;100764.19;10089231;29;20049;-80
2022/10/08 10:25:34;;;;;;;14.57;5.35;;;;;;;12.51;69.28;100779.72;10086046;29;20056;-78
2022/10/08 10:30:49;;;;;;;10.88;4.88;;;;;;;13.00;68.14;100775.59;10071715;29;20139;-80
2022/10/08 10:35:55;;;;;;;10.15;4.03;;;;;;;14.46;63.28;100765.50;10064216;29;20061;-78
2022/10/08 10:41:09;;;;;;;10.23;3.97;;;;;;;15.83;59.66;100771.59;10088120;29;20521;-78
2022/10/08 10:46:24;;;;;;;9.95;3.03;;;;;;;14.90;58.78;100765.94;10071918;29;20052;-77
2022/10/08 10:51:37;;;;;;;8.77;2.70;;;;;;;13.14;64.27;100769.03;10074871;29;20064;-79
2022/10/08 10:56:47;;;;;;;8.15;2.40;;;;;;;16.41;55.32;100774.00;10066409;29;20572;-78
2022/10/08 11:01:59;;;;;;;6.70;2.10;;;;;;;14.94;56.05;100774.59;10080406;29;21671;-78
2022/10/08 11:07:05;;;;;;;4.37;2.00;;;;;;;14.73;56.56;100774.78;10069189;29;20052;-77
2022/10/08 11:12:26;;;;;;;4.82;1.80;;;;;;;14.01;56.46;100778.56;10046073;29;20072;-78
2022/10/08 11:17:41;;;;;;;5.22;1.75;;;;;;;14.74;54.71;100774.59;10084471;29;20060;-78
2022/10/08 11:22:55;;;;;;;5.43;1.98;;;;;;;16.39;52.27;100764.31;10087748;29;20049;-78
2022/10/08 11:28:15;;;;;;;4.40;1.30;;;;;;;15.68;50.41;100772.03;10096039;29;20052;-79
2022/10/08 11:33:18;;;;;;;5.35;1.40;;;;;;;16.19;50.64;100779.81;10079192;29;20052;-78
2022/10/08 11:38:30;;;;;;;5.40;2.08;;;;;;;15.01;53.45;100770.34;10079136;29;20052;-78
2022/10/08 11:43:43;;;;;;;4.90;1.65;;;;;;;14.42;56.23;100782.97;10094944;29;20052;-78
2022/10/08 11:48:46;;;;;;;3.47;1.90;;;;;;;13.56;56.06;100774.41;10066711;29;20080;-78
2022/10/08 11:54:02;;;;;;;3.17;1.08;;;;;;;14.40;54.17;100781.41;10080371;29;20052;-79
2022/10/08 11:59:24;;;;;;;7.80;1.20;;;;;;;15.83;51.44;100777.84;10087060;29;20696;-80
2022/10/08 12:04:33;;;;;;;3.22;1.50;;;;;;;17.00;48.90;100761.69;10116738;29;20094;-79
2022/10/08 12:10:00;;;;;;;3.92;1.60;;;;;;;15.95;48.83;100761.41;10106855;29;20156;-77
2022/10/08 12:15:44;;;;;;;3.13;0.90;;;;;;;17.33;46.46;100783.66;10074711;29;20471;-80
2022/10/08 12:21:26;;;;;;;5.35;0.98;;;;;;;15.10;49.85;100783.00;10079003;29;20044;-78
2022/10/08 12:26:29;;;;;;;5.60;1.25;;;;;;;13.94;53.06;100786.38;10096897;29;20056;-78
2022/10/08 12:31:38;;;;;;;3.72;1.60;;;;;;;13.65;53.89;100791.63;10070557;29;20147;-78
2022/10/08 12:36:53;;;;;;;3.47;1.20;;;;;;;14.72;51.03;100792.81;10087258;29;20088;-79
2022/10/08 12:42:07;;;;;;;6.90;1.42;;;;;;;16.77;45.47;100777.56;10083375;29;20055;-78
2022/10/08 12:47:24;;;;;;;3.13;1.10;;;;;;;17.00;44.27;100802.38;10088293;29;20052;-78
2022/10/08 12:52:32;;;;;;;8.35;0.70;;;;;;;17.18;43.28;100783.38;10092839;29;20055;-79
2022/10/08 12:57:37;;;;;;;2.53;1.15;;;;;;;16.81;43.12;100813.38;10093245;29;20077;-78
2022/10/08 13:02:42;;;;;;;4.93;0.95;;;;;;;17.84;42.20;100802.81;10082168;29;20049;-79
2022/10/08 13:07:45;;;;;;;3.70;0.85;;;;;;;17.27;44.21;100805.16;10103522;29;20071;-80
2022/10/08 13:13:02;;;;;;;7.82;0.80;;;;;;;18.35;41.29;100818.19;10087643;29;20072;-79
2022/10/08 13:18:14;;;;;;;3.53;0.90;;;;;;;18.12;42.39;100814.34;10084369;29;20127;-79
2022/10/08 13:23:32;;;;;;;3.72;0.70;;;;;;;18.50;41.51;100809.41;10082078;29;20051;-78
2022/10/08 13:28:35;;;;;;;3.45;1.05;;;;;;;20.74;39.24;100814.16;10100677;29;20056;-78
2022/10/08 13:34:03;;;;;;;5.30;1.50;;;;;;;20.25;38.71;100817.13;10064425;29;20063;-79
2022/10/08 13:39:18;;;;;;;4.53;0.88;;;;;;;19.29;40.97;100816.16;10084431;29;20179;-78
2022/10/08 13:44:21;;;;;;;3.00;0.80;;;;;;;19.47;38.50;100832.28;10083431;29;20064;-79
2022/10/08 13:49:26;;;;;;;5.43;0.80;;;;;;;18.01;41.16;100834.53;10092730;29;20056;-80
2022/10/08 13:54:32;;;;;;;6.25;1.08;;;;;;;18.07;39.81;100841.16;10075660;29;20048;-80
2022/10/08 13:59:35;;;;;;;2.92;0.47;;;;;;;19.08;38.54;100854.75;10103838;29;20605;-79
2022/10/08 14:04:39;;;;;;;4.00;1.10;;;;;;;16.53;43.60;100856.81;10114563;29;21101;-78
2022/10/08 14:09:42;;;;;;;4.70;0.60;;;;;;;14.49;53.22;100897.66;10088357;29;20503;-79
2022/10/08 14:14:45;;;;;;;5.38;0.70;;;;;;;13.97;56.60;100902.25;10096791;29;20140;-79
2022/10/08 14:19:50;;;;;;;2.55;0.70;;;;;;;13.47;60.17;100911.00;10096567;29;20115;-79
2022/10/08 14:24:52;;;;;;;2.60;0.50;;;;;;;12.65;65.26;100918.72;10072690;29;21220;-79
2022/10/08 14:29:55;;;;;;;1.58;0.43;;;;;;;14.93;60.26;100905.44;10096272;29;20052;-78
2022/10/08 14:34:59;;;;;;;1.88;0.25;;;;;;;15.64;53.87;100908.75;10083533;29;20544;-78
2022/10/08 14:40:03;;;;;;;0.63;0.30;;;;;;;17.16;51.63;100903.97;10104224;29;20184;-79
2022/10/08 14:45:06;;;;;;;2.35;1.48;;;;;;;17.66;47.92;100903.38;10082328;29;20074;-80
2022/10/08 14:50:12;;;;;;;1.00;0.28;;;;;;;17.05;48.84;100910.44;10085232;29;20874;-79
2022/10/08 14:55:15;;;;;;;2.40;0.30;;;;;;;16.72;48.71;100906.53;10060359;29;20049;-79
2022/10/08 15:00:18;;;;;;;3.08;0.60;;;;;;;16.85;48.86;100915.16;10090169;29;20053;-79
2022/10/08 15:05:22;;;;;;;2.38;0.85;;;;;;;17.44;47.92;100902.91;10069982;29;20438;-80
2022/10/08 15:10:25;;;;;;;4.78;0.80;;;;;;;16.94;47.35;100918.81;10099190;29;20052;-79
2022/10/08 15:15:28;;;;;;;3.00;1.17;;;;;;;16.32;48.74;100922.16;10025122;29;21187;-77
2022/10/08 15:20:33;;;;;;;1.10;0.50;;;;;;;15.57;49.89;100923.84;10103345;29;20056;-80
2022/10/08 15:25:36;;;;;;;2.67;0.80;;;;;;;16.54;48.80;100920.91;10090213;29;20061;-79
2022/10/08 15:30:39;;;;;;;4.45;0.63;;;;;;;16.73;46.89;100929.94;10090757;29;21414;-78
2022/10/08 15:35:43;;;;;;;5.15;0.68;;;;;;;16.91;47.16;100936.25;10039656;29;20049;-78
2022/10/08 15:40:46;;;;;;;4.25;0.65;;;;;;;16.08;49.24;100938.88;10077880;29;20046;-78
2022/10/08 15:45:49;;;;;;;2.67;0.60;;;;;;;15.77;49.47;100948.22;10092263;29;20450;-79
2022/10/08 15:50:58;;;;;;;4.03;0.93;;;;;;;15.78;49.93;100960.78;10066787;29;20533;-78
2022/10/08 15:56:01;;;;;;;4.18;0.80;;;;;;;15.95;50.29;100968.16;10085521;29;20064;-78
2022/10/08 16:01:08;;;;;;;4.15;0.75;;;;;;;15.36;51.77;100972.75;10091756;29;20057;-78
2022/10/08 16:06:15;;;;;;;4.18;0.90;;;;;;;14.51;54.24;100976.78;10089369;29;20124;-78
2022/10/08 16:11:20;;;;;;;5.78;1.25;;;;;;;14.09;55.52;100984.03;10075007;29;20057;-79
2022/10/08 16:16:23;;;;;;;3.42;0.82;;;;;;;13.65;56.81;100994.09;10076915;29;20057;-79
2022/10/08 16:21:29;;;;;;;4.35;1.10;;;;;;;13.53;57.30;100995.16;10091372;29;20069;-78
2022/10/08 16:26:34;;;;;;;4.85;1.15;;;;;;;13.58;57.48;101003.72;10092579;29;20059;-79
2022/10/08 16:31:38;;;;;;;4.70;0.80;;;;;;;13.24;58.45;101001.09;10089949;29;20048;-78
2022/10/08 16:36:43;;;;;;;5.10;1.10;;;;;;;13.15;58.44;101021.59;10094168;29;20762;-79
2022/10/08 16:41:46;;;;;;;6.20;0.95;;;;;;;13.05;59.50;101031.41;10065930;29;20059;-78
2022/10/08 16:46:50;;;;;;;5.00;1.23;;;;;;;12.68;59.34;101037.06;10087560;29;20155;-78
2022/10/08 16:51:56;;;;;;;3.53;1.73;;;;;;;12.32;59.29;101051.63;10082486;29;20060;-78
2022/10/08 16:56:59;;;;;;;3.72;1.50;;;;;;;11.73;61.11;101055.19;10097658;29;21602;-79
2022/10/08 17:02:02;;;;;;;4.88;2.20;;;;;;;11.76;61.28;101056.78;10096485;29;20052;-79
2022/10/08 17:07:07;;;;;;;2.60;1.23;;;;;;;11.59;61.94;101060.75;10088146;29;20049;-79
2022/10/08 17:12:10;;;;;;;8.52;1.15;;;;;;;11.33;62.95;101077.00;10111457;29;21584;-79
2022/10/08 17:17:13;;;;;;;8.88;1.20;;;;;;;11.21;63.41;101086.78;10083894;29;20060;-78
2022/10/08 17:22:17;;;;;;;5.90;1.20;;;;;;;11.05;63.99;101097.78;10086701;29;20052;-78
2022/10/08 17:27:20;;;;;;;5.90;1.13;;;;;;;11.07;63.99;101108.41;10090858;29;20053;-79
2022/10/08 17:32:23;;;;;;;5.10;1.77;;;;;;;11.38;63.31;101108.91;10077764;29;20053;-78
2022/10/08 17:37:27;;;;;;;3.72;1.20;;;;;;;11.31;63.58;101119.28;10095270;29;20396;-79
2022/10/08 17:42:30;;;;;;;7.45;2.15;;;;;;;11.30;63.72;101122.06;10114800;29;20056;-79
2022/10/08 17:47:32;;;;;;;5.03;2.33;;;;;;;11.04;64.92;101128.31;10087035;29;20051;-79
2022/10/08 17:52:36;;;;;;;4.10;1.77;;;;;;;11.05;65.13;101135.44;10074669;29;20068;-79
2022/10/08 17:57:39;;;;;;;4.90;1.55;;;;;;;10.77;65.88;101141.03;10078411;29;20072;-79
2022/10/08 18:02:42;;;;;;;5.60;2.20;;;;;;;10.87;65.86;101147.47;10110150;29;20074;-79
2022/10/08 18:07:46;;;;;;;10.30;2.25;;;;;;;10.62;66.82;101167.13;10114061;29;20104;-79
2022/10/08 18:12:49;;;;;;;6.43;2.65;;;;;;;10.79;66.21;101156.06;10087373;29;20044;-79
2022/10/08 18:17:52;;;;;;;8.82;2.90;;;;;;;10.69;66.48;101175.63;10093172;29;20047;-79
2022/10/08 18:22:56;;;;;;;;;;;;;;;10.76;66.17;101177.78;10088401;29;20053;-80
2022/10/08 18:27:59;;;;;;;9.10;2.05;;;;;;;10.56;66.50;101179.16;10083427;29;19935;-79
2022/10/08 18:33:01;;;;;;;;;;;;;;;10.69;66.13;101200.66;10091917;29;20064;-79
2022/10/08 18:38:05;;;;;;;10.88;2.67;;;;;;;10.53;66.57;101210.72;10098088;29;19927;-79
2022/10/08 18:43:08;;;;;;;9.70;2.75;;;;;;;10.49;66.17;101210.09;10096525;29;20590;-80
2022/10/08 18:48:11;;;;;;;5.70;2.60;;;;;;;10.54;66.21;101218.69;10095388;29;20061;-79
2022/10/08 18:53:15;;;;;;;;;;;;;;;10.57;66.01;101220.31;10111722;29;21492;-80
2022/10/08 18:58:17;;;;;;;9.82;2.92;;;;;;;10.46;66.53;101229.09;10090616;29;20287;-79
2022/10/08 19:03:20;;;;;;;;;;;;;;;10.48;66.51;101227.19;10088149;29;20140;-79
2022/10/08 19:08:24;;;;;;;8.35;3.08;;;;;;;10.35;67.06;101245.09;10086589;29;20010;-80
2022/10/08 19:13:27;;;;;;;8.57;2.33;;;;;;;10.36;67.39;101241.41;10080804;29;20052;-78
2022/10/08 19:18:30;;;;;;;6.20;3.30;;;;;;;10.30;67.27;101241.84;10081033;29;20419;-80
2022/10/08 19:23:34;;;;;;;6.40;3.38;;;;;;;10.14;67.99;101250.03;10104026;29;20058;-80
2022/10/08 19:28:38;;;;;;;9.35;3.72;;;;;;;10.10;68.07;101253.91;10092528;29;20064;-79
2022/10/08 19:33:41;;;;;;;8.27;3.50;;;;;;;10.00;68.32;101253.63;10088032;29;20049;-79
2022/10/08 19:38:51;;;;;;;7.07;3.30;;;;;;;9.89;68.84;101254.31;10071802;29;20055;-79
2022/10/08 19:43:55;;;;;;;10.52;3.33;;;;;;;9.96;68.67;101252.09;10079023;29;20072;-78
2022/10/08 19:49:00;;;;;;;10.82;4.30;;;;;;;9.99;68.41;101262.66;10087392;29;20059;-78
2022/10/08 19:54:05;;;;;;;7.88;3.42;;;;;;;9.72;69.40;101275.97;10082540;29;20057;-80
2022/10/08 19:59:10;;;;;;;12.25;3.88;;;;;;;9.77;69.13;101273.88;10068357;29;20060;-79
2022/10/08 20:04:15;;;;;;;9.10;3.60;;;;;;;9.75;69.24;101291.88;10085712;29;20048;-78
2022/10/08 20:09:19;;;;;;;9.93;3.65;;;;;;;9.59;70.16;101291.09;10083284;29;20063;-79
2022/10/08 20:14:22;;;;;;;9.40;3.78;;;;;;;9.63;69.85;101287.28;10098330;29;20056;-78
2022/10/08 20:19:25;;;;;;;;;;;;;;;9.59;69.87;101302.69;10098800;29;20079;-78
2022/10/08 20:24:29;;;;;;;9.70;3.75;;;;;;;9.45;70.28;101302.69;10071551;29;20498;-79
2022/10/08 20:29:32;;;;;;;8.57;3.70;;;;;;;9.49;70.35;101305.09;10079504;29;20061;-79
2022/10/08 20:34:35;;;;;;;6.20;4.05;;;;;;;9.42;70.65;101318.97;10090386;29;20092;-79
2022/10/08 20:39:39;;;;;;;7.28;3.60;;;;;;;9.41;70.82;101311.91;10091182;29;20060;-78
2022/10/08 20:44:42;;;;;;;8.05;3.78;;;;;;;9.37;70.83;101313.03;10087242;29;20596;-78
2022/10/08 20:49:45;;;;;;;;;;;;;;;9.25;71.22;101322.69;10099120;29;20055;-78
2022/10/08 20:54:49;;;;;;;12.82;3.83;;;;;;;9.29;71.31;101325.06;10083308;29;20026;-80
2022/10/08 20:59:52;;;;;;;8.88;3.75;;;;;;;9.31;71.27;101334.88;10059772;29;20504;-78
2022/10/08 21:04:55;;;;;;;8.98;4.25;;;;;;;9.32;71.27;101329.41;10076306;29;20048;-79
2022/10/08 21:10:00;;;;;;;14.82;5.43;;;;;;;9.27;71.49;101335.06;10077398;29;20044;-80
2022/10/08 21:15:03;;;;;;;14.63;5.15;;;;;;;9.28;71.56;101334.09;10072393;29;20057;-80
2022/10/08 21:20:07;;;;;;;9.38;4.78;;;;;;;9.17;71.98;101338.38;10065847;29;20052;-77
2022/10/08 21:25:11;;;;;;;14.40;4.88;;;;;;;9.04;72.34;101332.88;10082004;29;20518;-78
2022/10/08 21:30:14;;;;;;;10.13;4.60;;;;;;;8.93;73.04;101340.69;10071288;29;20138;-78
2022/10/08 21:35:17;;;;;;;12.75;4.90;;;;;;;8.86;73.71;101347.34;10069056;29;20073;-77
2022/10/08 21:40:21;;;;;;;;;;;;;;;8.85;74.30;101343.81;10100950;29;20056;-80
2022/10/08 21:45:24;;;;;;;12.48;4.90;;;;;;;8.87;73.90;101351.78;10091277;29;19927;-79
2022/10/08 21:50:27;;;;;;;12.50;4.95;;;;;;;8.84;73.95;101355.50;10090666;29;20049;-78
2022/10/08 21:55:31;;;;;;;;;;;;;;;8.84;74.12;101355.50;10095598;29;21076;-79
2022/10/08 22:00:33;;;;;;;9.35;4.97;;;;;;;8.79;74.26;101355.75;10097995;29;19988;-79
2022/10/08 22:05:36;;;;;;;11.18;4.57;;;;;;;8.51;75.05;101364.53;10105430;29;20048;-80
2022/10/08 22:10:40;;;;;;;;;;;;;;;8.47;75.68;101364.78;10101109;29;20055;-79
2022/10/08 22:15:51;;;;;;;7.05;4.45;;;;;;;8.38;76.53;101360.78;10095597;29;19934;-80
2022/10/08 22:20:54;;;;;;;17.02;5.57;;;;;;;8.64;75.65;101371.84;10094036;29;20061;-79
2022/10/08 22:26:00;;;;;;;12.98;5.40;;;;;;;8.70;75.19;101366.16;10101701;29;20135;-80
2022/10/08 22:31:05;;;;;;;11.50;5.20;;;;;;;8.81;75.05;101375.31;10097575;29;20052;-79
2022/10/08 22:36:09;;;;;;;7.63;4.53;;;;;;;8.83;74.32;101372.50;10094354;29;20965;-79
2022/10/08 22:41:16;;;;;;;8.57;5.43;;;;;;;8.66;73.37;101375.31;10098087;29;20048;-79
2022/10/08 22:46:21;;;;;;;14.88;8.27;;;;;;;8.57;73.54;101377.56;10090627;29;20054;-78
2022/10/08 22:51:24;;;;;;;12.43;7.00;;;;;;;8.51;73.81;101369.03;10107146;29;20059;-79
2022/10/08 22:56:30;;;;;;;11.88;6.65;;;;;;;8.40;74.27;101381.16;10099186;29;20167;-79
2022/10/08 23:01:33;;;;;;;12.13;6.88;;;;;;;8.40;74.24;101377.63;10098849;29;20056;-78
2022/10/08 23:06:36;;;;;;;10.15;6.32;;;;;;;8.28;74.14;101381.88;10093977;29;20086;-79
2022/10/08 23:11:40;;;;;;;12.60;6.45;;;;;;;8.30;76.14;101387.13;10101694;29;20452;-79
2022/10/08 23:16:42;;;;;;;18.30;7.90;;;;;;;8.41;76.29;101390.06;10103107;29;21072;-80
2022/10/08 23:21:45;;;;;;;10.35;5.90;;;;;;;8.39;76.34;101387.47;10104149;29;20063;-79
2022/10/08 23:26:49;;;;;;;;;;;;;;;8.40;76.41;101391.03;10103540;29;20045;-80
2022/10/08 23:31:53;;;;;;;15.82;5.85;;;;;;;8.39;76.75;101387.47;10113203;29;21016;-79
2022/10/08 23:36:56;;;;;;;14.05;6.40;;;;;;;8.41;76.56;101376.66;10093844;29;20135;-80